Florence, Colorado
Current Conditions -  °F | °C
As of 8:35 PM on Friday 19 Dec 2014 (Local Time) from K1V6 Reporting Station
Clear Clear  
Wind Chill: 24°   Ceiling: Unl
Heat Index: 30°   Visibility: 10mi
Dew Point: 14°   Wind: 6mph
Humidity: 51%   Direction: 270°W
Pressure: 30.06"   Gusts: NA
Location:  38.39°N, 105.12°W
Report Text: K1V6 200335Z AUTO 27005KT 10SM CLR M01/M10 A3006 RMK AO2
Loading
Personal Weather Stations






























Interactive Weather Map New forecast layout! Learn more

10-Day Weather Forecast

Advertisements
Track Severe Weather on mobile